Time;durP1;ratioP1;P1;durP2;ratioP2;P2;SDS_P1;SDS_P2;PMS_P1;PMS_P2;Temp;Humidity;BMP_temperature;BMP_pressure;BME280_temperature;BME280_humidity;BME280_pressure;Samples;Min_cycle;Max_cycle;Signal;HPM_P1;HPM_P2
2021/07/23 00:02:20;;;;;;;10.40;7.20;;;21.50;96.50;;;;;;5073713;28;21007;-74
2021/07/23 00:04:46;;;;;;;9.17;7.40;;;21.40;96.60;;;;;;5073982;28;20450;-75
2021/07/23 00:07:13;;;;;;;8.70;6.83;;;21.40;96.80;;;;;;5074880;28;20537;-78
2021/07/23 00:09:40;;;;;;;10.33;8.03;;;21.30;97.00;;;;;;5077662;28;20436;-77
2021/07/23 00:12:08;;;;;;;8.50;7.10;;;21.20;97.30;;;;;;5073429;28;20468;-74
2021/07/23 00:14:34;;;;;;;10.57;7.40;;;21.20;97.80;;;;;;5073547;28;20923;-77
2021/07/23 00:17:01;;;;;;;10.20;6.80;;;21.20;97.80;;;;;;5073628;28;20477;-76
2021/07/23 00:19:30;;;;;;;8.10;6.73;;;21.20;97.90;;;;;;5073728;28;20486;-77
2021/07/23 00:21:57;;;;;;;7.77;6.80;;;21.20;98.10;;;;;;5073232;28;21096;-77
2021/07/23 00:24:24;;;;;;;8.30;7.37;;;21.10;98.10;;;;;;5073403;28;20455;-73
2021/07/23 00:26:51;;;;;;;9.63;7.57;;;21.00;98.50;;;;;;5073458;28;20796;-76
2021/07/23 00:29:18;;;;;;;8.83;6.93;;;20.90;98.60;;;;;;5073435;28;20459;-76
2021/07/23 00:31:45;;;;;;;10.07;7.27;;;20.90;98.80;;;;;;5073224;28;20468;-75
2021/07/23 00:34:12;;;;;;;10.60;7.97;;;20.80;99.10;;;;;;5073476;28;20473;-76
2021/07/23 00:36:40;;;;;;;10.80;7.33;;;20.80;99.40;;;;;;5073171;28;20477;-74
2021/07/23 00:39:07;;;;;;;7.60;6.90;;;20.80;99.50;;;;;;5073215;28;20568;-73
2021/07/23 00:41:34;;;;;;;9.60;6.90;;;20.80;99.70;;;;;;5072746;28;21041;-73
2021/07/23 00:44:01;;;;;;;7.80;6.63;;;20.80;99.80;;;;;;5073131;28;20542;-72
2021/07/23 00:46:31;;;;;;;9.50;7.20;;;20.80;99.90;;;;;;5072804;28;20447;-74
2021/07/23 00:48:58;;;;;;;11.07;7.30;;;20.70;99.90;;;;;;5072329;28;20455;-73
2021/07/23 00:51:25;;;;;;;9.37;6.57;;;20.70;99.90;;;;;;5072659;28;20559;-72
2021/07/23 00:53:54;;;;;;;8.47;6.90;;;20.70;99.90;;;;;;5073072;28;20534;-72
2021/07/23 00:56:22;;;;;;;8.83;7.37;;;20.70;99.90;;;;;;5073098;28;20478;-75
2021/07/23 00:58:49;;;;;;;9.17;6.97;;;20.60;99.90;;;;;;5072600;28;20462;-73
2021/07/23 01:01:16;;;;;;;8.33;6.70;;;20.60;99.90;;;;;;5072569;28;20464;-73
2021/07/23 01:03:43;;;;;;;10.60;7.33;;;20.50;99.90;;;;;;5072610;28;20462;-71
2021/07/23 01:06:11;;;;;;;10.30;7.07;;;20.50;99.90;;;;;;5072403;28;20542;-74
2021/07/23 01:08:38;;;;;;;9.17;6.33;;;20.50;99.90;;;;;;5072626;28;20552;-72
2021/07/23 01:11:07;;;;;;;9.40;7.10;;;20.50;99.90;;;;;;5072259;28;20468;-71
2021/07/23 01:13:35;;;;;;;7.90;6.73;;;20.50;99.90;;;;;;5072519;28;20447;-74
2021/07/23 01:16:02;;;;;;;9.87;7.07;;;20.40;99.90;;;;;;5072487;28;21012;-74
2021/07/23 01:18:29;;;;;;;9.87;6.83;;;20.40;99.90;;;;;;5072235;28;20456;-72
2021/07/23 01:20:57;;;;;;;9.07;6.93;;;20.40;99.90;;;;;;5072311;28;20585;-74
2021/07/23 01:23:30;;;;;;;10.57;6.93;;;20.30;99.90;;;;;;5072434;28;20549;-73
2021/07/23 01:25:58;;;;;;;9.53;7.60;;;20.30;99.90;;;;;;5072432;28;20451;-75
2021/07/23 01:28:26;;;;;;;11.37;7.23;;;20.30;99.90;;;;;;5071942;28;20475;-74
2021/07/23 01:30:55;;;;;;;8.90;6.80;;;20.20;99.90;;;;;;5071915;28;20985;-76
2021/07/23 01:33:22;;;;;;;9.50;7.67;;;20.30;99.90;;;;;;5072545;28;20543;-77
2021/07/23 01:35:49;;;;;;;9.80;7.50;;;20.20;99.90;;;;;;5072638;28;20453;-77
2021/07/23 01:38:17;;;;;;;11.00;7.40;;;20.20;99.90;;;;;;5073126;28;21013;-78
2021/07/23 01:40:46;;;;;;;8.30;6.90;;;20.20;99.90;;;;;;5072647;28;20487;-76
2021/07/23 01:43:15;;;;;;;9.87;7.70;;;20.20;99.90;;;;;;5072015;28;20499;-76
2021/07/23 01:45:42;;;;;;;7.60;6.30;;;20.20;99.90;;;;;;5071886;28;20446;-76
2021/07/23 01:48:09;;;;;;;7.70;6.40;;;20.10;99.90;;;;;;5072020;28;20942;-77
2021/07/23 01:50:36;;;;;;;6.77;5.83;;;20.10;99.90;;;;;;5072351;28;20496;-76
2021/07/23 01:53:04;;;;;;;8.10;6.60;;;20.10;99.90;;;;;;5072388;28;20533;-76
2021/07/23 01:55:31;;;;;;;10.27;7.20;;;20.10;99.90;;;;;;5072220;28;20464;-76
2021/07/23 01:57:59;;;;;;;9.53;6.60;;;20.10;99.90;;;;;;5072037;28;21027;-76
2021/07/23 02:00:26;;;;;;;8.93;7.22;;;20.10;99.90;;;;;;5075123;28;20498;-76
2021/07/23 02:02:53;;;;;;;9.93;7.07;;;20.00;99.90;;;;;;5076079;28;20747;-77
2021/07/23 02:05:20;;;;;;;9.40;7.00;;;20.00;99.90;;;;;;5076626;28;20449;-77
2021/07/23 02:07:47;;;;;;;7.50;6.17;;;19.90;99.90;;;;;;5076695;28;20452;-78
2021/07/23 02:10:14;;;;;;;9.70;6.87;;;19.90;99.90;;;;;;5077339;28;20537;-77
2021/07/23 02:12:40;;;;;;;10.17;7.00;;;19.90;99.90;;;;;;5076744;28;20481;-76
2021/07/23 02:15:10;;;;;;;8.20;6.30;;;19.90;99.90;;;;;;5076330;28;20527;-75
2021/07/23 02:17:36;;;;;;;9.52;7.32;;;19.80;99.90;;;;;;5075613;28;20459;-75
2021/07/23 02:20:04;;;;;;;10.10;7.20;;;19.80;99.90;;;;;;5075441;28;20222;-73
2021/07/23 02:22:31;;;;;;;9.17;6.40;;;19.80;99.90;;;;;;5075545;28;20548;-74
2021/07/23 02:24:57;;;;;;;10.30;6.97;;;19.80;99.90;;;;;;5075453;28;20540;-74
2021/07/23 02:27:24;;;;;;;7.37;5.93;;;19.90;99.90;;;;;;5075341;28;20815;-74
2021/07/23 02:29:51;;;;;;;10.30;6.50;;;19.90;99.90;;;;;;5075055;28;20545;-74
2021/07/23 02:32:20;;;;;;;9.63;7.10;;;19.80;99.90;;;;;;5075523;28;21097;-74
2021/07/23 02:34:47;;;;;;;8.00;7.20;;;19.80;99.90;;;;;;5075658;28;20520;-75
2021/07/23 02:37:13;;;;;;;9.27;7.40;;;19.70;99.90;;;;;;5075223;28;20486;-74
2021/07/23 02:39:40;;;;;;;8.95;6.97;;;19.70;99.90;;;;;;5074959;28;20572;-75
2021/07/23 02:42:07;;;;;;;8.60;6.90;;;19.70;99.90;;;;;;5074837;28;20322;-74
2021/07/23 02:44:34;;;;;;;11.53;7.67;;;19.70;99.90;;;;;;5075381;28;20451;-75
2021/07/23 02:47:01;;;;;;;11.13;7.55;;;19.60;99.90;;;;;;5075253;28;20445;-77
2021/07/23 02:49:29;;;;;;;8.40;6.73;;;19.70;99.90;;;;;;5075160;28;20207;-76
2021/07/23 02:51:56;;;;;;;8.70;6.85;;;19.60;99.90;;;;;;5074900;28;20473;-76
2021/07/23 02:54:22;;;;;;;9.98;7.25;;;19.60;99.90;;;;;;5075105;28;20626;-75
2021/07/23 02:56:49;;;;;;;12.00;8.05;;;19.50;99.90;;;;;;5075024;28;20203;-75
2021/07/23 02:59:16;;;;;;;8.00;6.72;;;19.50;99.90;;;;;;5075176;28;20221;-73
2021/07/23 03:01:43;;;;;;;9.30;7.43;;;19.50;99.90;;;;;;5074803;28;20253;-73
2021/07/23 03:04:09;;;;;;;10.23;8.23;;;19.50;99.90;;;;;;5074937;28;20234;-75
2021/07/23 03:06:38;;;;;;;10.95;7.78;;;19.40;99.90;;;;;;5074890;28;20445;-75
2021/07/23 03:09:04;;;;;;;10.55;7.22;;;19.40;99.90;;;;;;5074763;28;20235;-75
2021/07/23 03:11:31;;;;;;;9.45;6.88;;;19.40;99.90;;;;;;5073368;28;20310;-75
2021/07/23 03:13:58;;;;;;;8.85;7.43;;;19.40;99.90;;;;;;5074703;28;20673;-73
2021/07/23 03:16:25;;;;;;;11.07;8.20;;;19.30;99.90;;;;;;5074720;28;20211;-74
2021/07/23 03:18:52;;;;;;;10.65;7.70;;;19.30;99.90;;;;;;5074600;28;20569;-74
2021/07/23 03:21:22;;;;;;;8.68;7.50;;;19.30;99.90;;;;;;5074329;28;20230;-77
2021/07/23 03:23:50;;;;;;;12.68;8.75;;;19.20;99.90;;;;;;5074546;28;20205;-76
2021/07/23 03:26:19;;;;;;;12.23;7.95;;;19.20;99.90;;;;;;5074469;28;20206;-74
2021/07/23 03:28:46;;;;;;;8.68;7.15;;;19.20;99.90;;;;;;5074477;28;20301;-73
2021/07/23 03:31:13;;;;;;;10.45;8.05;;;19.20;99.90;;;;;;5074349;28;20223;-75
2021/07/23 03:33:40;;;;;;;11.43;7.72;;;19.20;99.90;;;;;;5074363;28;20206;-73
2021/07/23 03:36:07;;;;;;;10.52;7.63;;;19.10;99.90;;;;;;5074243;28;20199;-73
2021/07/23 03:38:34;;;;;;;9.55;7.30;;;19.10;99.90;;;;;;5074474;28;20198;-73
2021/07/23 03:41:03;;;;;;;10.10;6.97;;;19.10;99.90;;;;;;5074521;28;20241;-78
2021/07/23 03:43:30;;;;;;;8.90;7.80;;;19.10;99.90;;;;;;5076068;28;20299;-72
2021/07/23 03:45:57;;;;;;;11.88;7.88;;;19.00;99.90;;;;;;5076051;28;20199;-72
2021/07/23 03:48:24;;;;;;;9.18;7.07;;;19.10;99.90;;;;;;5076068;28;20543;-72
2021/07/23 03:50:50;;;;;;;11.75;8.13;;;19.00;99.90;;;;;;5075195;28;20219;-72
2021/07/23 03:53:17;;;;;;;10.23;7.55;;;19.00;99.90;;;;;;5075715;28;20204;-72
2021/07/23 03:55:44;;;;;;;10.10;7.50;;;19.00;99.90;;;;;;5075724;28;20203;-72
2021/07/23 03:58:12;;;;;;;10.38;7.65;;;19.00;99.90;;;;;;5075790;28;20231;-72
2021/07/23 04:00:39;;;;;;;10.68;7.57;;;18.90;99.90;;;;;;5075371;28;20600;-72
2021/07/23 04:03:06;;;;;;;9.57;7.40;;;18.80;99.90;;;;;;5075448;28;20199;-72
2021/07/23 04:05:32;;;;;;;10.48;7.63;;;18.80;99.90;;;;;;5075260;28;20205;-72
2021/07/23 04:07:59;;;;;;;8.48;7.22;;;18.80;99.90;;;;;;5075181;28;20568;-72
2021/07/23 04:10:26;;;;;;;11.10;8.18;;;18.80;99.90;;;;;;5075040;28;20574;-72
2021/07/23 04:12:53;;;;;;;10.32;7.85;;;18.80;99.90;;;;;;5075405;28;20673;-72
2021/07/23 04:15:21;;;;;;;11.55;7.93;;;18.80;99.90;;;;;;5075567;28;20207;-72
2021/07/23 04:17:48;;;;;;;12.32;7.95;;;18.80;99.90;;;;;;5075560;28;20294;-72
2021/07/23 04:20:16;;;;;;;10.50;8.52;;;18.80;99.90;;;;;;5074688;28;20250;-72
2021/07/23 04:22:42;;;;;;;9.57;6.93;;;18.80;99.90;;;;;;5075119;28;20202;-72
2021/07/23 04:25:10;;;;;;;12.43;8.15;;;18.80;99.90;;;;;;5075131;28;20289;-71
2021/07/23 04:27:37;;;;;;;10.68;7.18;;;18.80;99.90;;;;;;5075181;28;20203;-72
2021/07/23 04:30:05;;;;;;;9.65;7.80;;;18.90;99.90;;;;;;5074355;28;20210;-72
2021/07/23 04:32:33;;;;;;;10.15;7.85;;;18.90;99.90;;;;;;5074703;28;20696;-72
2021/07/23 04:34:59;;;;;;;9.40;7.97;;;18.80;99.90;;;;;;5074842;28;20209;-72
2021/07/23 04:37:26;;;;;;;10.05;7.75;;;18.80;99.90;;;;;;5074880;28;20200;-72
2021/07/23 04:39:53;;;;;;;11.65;7.50;;;18.70;99.90;;;;;;5074776;28;20557;-72
2021/07/23 04:42:20;;;;;;;11.20;8.40;;;18.70;99.90;;;;;;5075113;28;20248;-72
2021/07/23 04:44:47;;;;;;;11.57;8.02;;;18.70;99.90;;;;;;5074934;28;20293;-72
2021/07/23 04:47:13;;;;;;;12.23;7.70;;;18.70;99.90;;;;;;5074285;28;20298;-72
2021/07/23 04:49:42;;;;;;;10.35;8.20;;;18.80;99.90;;;;;;5074604;28;20297;-72
2021/07/23 04:52:08;;;;;;;10.85;8.07;;;18.80;99.90;;;;;;5074152;28;20222;-72
2021/07/23 04:54:35;;;;;;;11.10;8.10;;;18.80;99.90;;;;;;5074670;28;20199;-72
2021/07/23 04:57:02;;;;;;;9.70;7.50;;;18.90;99.90;;;;;;5074687;28;20205;-72
2021/07/23 04:59:29;;;;;;;12.07;8.30;;;18.90;99.90;;;;;;5074138;28;20208;-72
2021/07/23 05:01:55;;;;;;;11.35;7.68;;;18.90;99.90;;;;;;5073869;28;20227;-72
2021/07/23 05:04:22;;;;;;;10.80;8.07;;;18.90;99.90;;;;;;5074378;28;20213;-72
2021/07/23 05:06:50;;;;;;;10.15;7.90;;;19.00;99.90;;;;;;5074231;28;20200;-72
2021/07/23 05:09:17;;;;;;;11.20;7.68;;;19.10;99.90;;;;;;5074433;28;20203;-72
2021/07/23 05:11:44;;;;;;;10.65;8.23;;;19.10;99.90;;;;;;5073500;28;20306;-72
2021/07/23 05:14:11;;;;;;;10.70;8.48;;;19.20;99.90;;;;;;5074056;28;20205;-72
2021/07/23 05:16:40;;;;;;;11.90;7.90;;;19.20;99.90;;;;;;5074090;28;20203;-72
2021/07/23 05:19:07;;;;;;;10.90;8.77;;;19.20;99.90;;;;;;5074179;28;20229;-72
2021/07/23 05:21:36;;;;;;;12.82;8.80;;;19.20;99.90;;;;;;5073375;28;20234;-72
2021/07/23 05:24:05;;;;;;;10.85;7.90;;;19.10;99.90;;;;;;5074231;28;20210;-72
2021/07/23 05:26:34;;;;;;;12.05;8.82;;;19.10;99.90;;;;;;5074200;28;20200;-72
2021/07/23 05:29:01;;;;;;;12.45;8.35;;;19.10;99.90;;;;;;5073551;28;20207;-72
2021/07/23 05:31:28;;;;;;;12.60;9.55;;;19.00;99.90;;;;;;5073896;28;20409;-72
2021/07/23 05:33:54;;;;;;;13.27;9.40;;;19.00;99.90;;;;;;5073280;28;20332;-72
2021/07/23 05:36:21;;;;;;;12.43;9.25;;;18.90;99.90;;;;;;5074077;28;20210;-72
2021/07/23 05:38:48;;;;;;;11.45;9.25;;;18.90;99.90;;;;;;5074004;28;20679;-71
2021/07/23 05:41:16;;;;;;;13.40;10.00;;;18.90;99.90;;;;;;5073183;28;20313;-72
2021/07/23 05:43:43;;;;;;;12.98;9.73;;;18.90;99.90;;;;;;5073770;28;20622;-72
2021/07/23 05:46:10;;;;;;;13.40;9.60;;;18.90;99.90;;;;;;5073646;28;20302;-72
2021/07/23 05:48:37;;;;;;;14.48;9.90;;;18.90;99.90;;;;;;5073903;28;20253;-72
2021/07/23 05:51:05;;;;;;;11.80;9.05;;;18.90;99.90;;;;;;5073042;28;20219;-72
2021/07/23 05:53:32;;;;;;;12.98;9.40;;;18.90;99.90;;;;;;5073924;28;20679;-72
2021/07/23 05:55:59;;;;;;;13.48;9.65;;;18.90;99.90;;;;;;5073586;28;20207;-72
2021/07/23 05:58:27;;;;;;;14.10;10.65;;;18.90;99.90;;;;;;5073649;28;20206;-71
2021/07/23 06:00:55;;;;;;;13.40;10.25;;;19.00;99.90;;;;;;5072950;28;20223;-71
2021/07/23 06:03:22;;;;;;;17.00;10.88;;;19.10;99.90;;;;;;5073514;28;20228;-72
2021/07/23 06:05:49;;;;;;;14.70;10.80;;;19.00;99.90;;;;;;5073844;28;20206;-72
2021/07/23 06:08:16;;;;;;;15.52;11.35;;;18.90;99.90;;;;;;5073122;28;20207;-72
2021/07/23 06:10:43;;;;;;;13.93;10.93;;;18.90;99.90;;;;;;5073053;28;20234;-72
2021/07/23 06:13:10;;;;;;;13.60;10.32;;;18.90;99.90;;;;;;5074061;28;20302;-72
2021/07/23 06:15:38;;;;;;;17.25;11.20;;;19.00;99.90;;;;;;5073616;28;20298;-72
2021/07/23 06:18:05;;;;;;;13.45;10.10;;;19.20;99.90;;;;;;5073637;28;20210;-72
2021/07/23 06:20:32;;;;;;;15.10;9.50;;;19.20;99.90;;;;;;5073084;28;20298;-72
2021/07/23 06:22:59;;;;;;;14.95;9.85;;;19.30;99.90;;;;;;5073308;28;20451;-72
2021/07/23 06:25:26;;;;;;;12.93;10.43;;;19.40;99.90;;;;;;5073385;28;20199;-72
2021/07/23 06:27:52;;;;;;;14.32;9.57;;;19.40;99.90;;;;;;5073428;28;20208;-72
2021/07/23 06:30:19;;;;;;;15.57;10.20;;;19.50;99.90;;;;;;5073108;28;20587;-72
2021/07/23 06:32:47;;;;;;;16.27;10.90;;;19.60;99.90;;;;;;5073825;28;20542;-72
2021/07/23 06:35:14;;;;;;;15.43;11.30;;;19.80;99.90;;;;;;5073522;28;20912;-72
2021/07/23 06:37:41;;;;;;;13.47;10.07;;;19.90;99.90;;;;;;5072929;28;20538;-72
2021/07/23 06:40:09;;;;;;;12.97;10.47;;;19.90;99.90;;;;;;5073036;28;20477;-71
2021/07/23 06:42:36;;;;;;;14.80;10.17;;;19.90;99.90;;;;;;5073180;28;21034;-72
2021/07/23 06:45:04;;;;;;;15.40;10.93;;;20.00;99.90;;;;;;5074152;28;20442;-72
2021/07/23 06:47:30;;;;;;;10.90;9.80;;;20.00;99.90;;;;;;5077222;28;20468;-72
2021/07/23 06:49:59;;;;;;;13.43;10.17;;;19.90;99.90;;;;;;5076548;28;20541;-72
2021/07/23 06:52:26;;;;;;;12.80;10.63;;;19.90;99.90;;;;;;5076822;28;20567;-72
2021/07/23 06:54:54;;;;;;;14.33;9.73;;;19.90;99.90;;;;;;5076874;28;20437;-72
2021/07/23 06:57:20;;;;;;;14.13;10.90;;;19.90;99.90;;;;;;5076940;28;20481;-72
2021/07/23 06:59:49;;;;;;;14.63;11.50;;;20.00;99.90;;;;;;5076844;28;20446;-73
2021/07/23 07:02:16;;;;;;;13.77;10.10;;;20.10;99.90;;;;;;5076668;28;20493;-72
2021/07/23 07:04:44;;;;;;;14.30;11.40;;;20.20;99.90;;;;;;5076334;28;20867;-72
2021/07/23 07:07:13;;;;;;;17.53;10.93;;;20.50;99.90;;;;;;5076424;28;20457;-72
2021/07/23 07:09:42;;;;;;;22.60;11.50;;;20.70;99.90;;;;;;5076351;28;20467;-72
2021/07/23 07:12:09;;;;;;;15.20;10.43;;;20.90;99.90;;;;;;5076711;28;20460;-72
2021/07/23 07:14:37;;;;;;;15.33;11.33;;;20.90;99.90;;;;;;5076701;28;20444;-72
2021/07/23 07:17:04;;;;;;;15.43;11.20;;;21.00;99.90;;;;;;5076293;28;20531;-72
2021/07/23 07:19:31;;;;;;;13.93;10.03;;;21.10;99.90;;;;;;5076110;28;20923;-72
2021/07/23 07:21:58;;;;;;;15.07;11.17;;;21.30;99.90;;;;;;5076262;28;20829;-72
2021/07/23 07:24:26;;;;;;;14.20;11.23;;;21.40;99.90;;;;;;5076400;28;20527;-72
2021/07/23 07:26:54;;;;;;;17.30;12.40;;;21.50;99.90;;;;;;5076467;28;20440;-72
2021/07/23 07:29:21;;;;;;;17.70;11.90;;;21.70;99.90;;;;;;5075704;28;20460;-72
2021/07/23 07:31:48;;;;;;;15.13;12.00;;;21.90;99.90;;;;;;5075942;28;20466;-72
2021/07/23 07:34:15;;;;;;;15.00;10.40;;;22.00;99.90;;;;;;5076131;28;20440;-72
2021/07/23 07:36:42;;;;;;;12.80;10.03;;;21.90;99.90;;;;;;5076154;28;20437;-72
2021/07/23 07:39:09;;;;;;;16.00;10.83;;;22.00;99.90;;;;;;5076062;28;20444;-72
2021/07/23 07:41:37;;;;;;;14.70;10.80;;;21.90;99.90;;;;;;5075298;28;20534;-72
2021/07/23 07:44:04;;;;;;;15.97;12.40;;;21.80;99.90;;;;;;5076555;28;20772;-72
2021/07/23 07:46:31;;;;;;;12.50;10.67;;;21.70;99.90;;;;;;5075633;28;20449;-72
2021/07/23 07:48:58;;;;;;;12.33;10.17;;;22.00;99.90;;;;;;5075867;28;20622;-72
2021/07/23 07:51:25;;;;;;;13.00;10.27;;;22.70;99.90;;;;;;5075662;28;20466;-72
2021/07/23 07:53:52;;;;;;;12.50;10.27;;;23.30;99.90;;;;;;5075906;28;20458;-72
2021/07/23 07:56:19;;;;;;;11.77;10.50;;;24.60;99.90;;;;;;5075226;28;20445;-73
2021/07/23 07:58:47;;;;;;;12.00;10.07;;;25.60;99.80;;;;;;5074936;28;20456;-73
2021/07/23 08:01:14;;;;;;;12.33;10.53;;;26.40;97.20;;;;;;5075429;28;20468;-72
2021/07/23 08:03:42;;;;;;;12.57;9.63;;;27.00;95.10;;;;;;5075401;28;20441;-73
2021/07/23 08:06:18;;;;;;;19.80;10.73;;;27.10;93.80;;;;;;5075656;28;20464;-73
2021/07/23 08:08:45;;;;;;;11.43;9.33;;;27.40;92.90;;;;;;5075759;28;20499;-73
2021/07/23 08:11:12;;;;;;;11.73;9.73;;;27.50;92.00;;;;;;5074885;28;20889;-73
2021/07/23 08:13:39;;;;;;;11.73;10.13;;;27.00;92.80;;;;;;5075361;28;20519;-73
2021/07/23 08:16:07;;;;;;;12.37;9.93;;;27.10;92.40;;;;;;5075183;28;21015;-73
2021/07/23 08:18:35;;;;;;;14.03;9.40;;;26.90;91.80;;;;;;5075405;28;20437;-73
2021/07/23 08:21:03;;;;;;;13.30;10.20;;;27.10;91.00;;;;;;5074786;28;20471;-72
2021/07/23 08:23:31;;;;;;;13.50;10.80;;;27.40;88.70;;;;;;5075566;28;20571;-73
2021/07/23 08:25:58;;;;;;;14.00;10.33;;;28.50;87.30;;;;;;5075007;28;20476;-73
2021/07/23 08:28:25;;;;;;;11.83;10.63;;;29.60;84.30;;;;;;5074898;28;20792;-73
2021/07/23 08:30:52;;;;;;;10.53;9.40;;;30.40;80.30;;;;;;5074553;28;20546;-73
2021/07/23 08:33:22;;;;;;;11.50;10.27;;;31.20;76.80;;;;;;5074863;28;20446;-73
2021/07/23 08:35:49;;;;;;;15.47;10.43;;;30.90;70.60;;;;;;5075206;28;20494;-73
2021/07/23 08:38:16;;;;;;;11.53;9.87;;;30.30;72.10;;;;;;5074612;28;20445;-72
2021/07/23 08:40:43;;;;;;;10.97;9.87;;;30.30;70.90;;;;;;5074320;28;20464;-73
2021/07/23 08:43:10;;;;;;;11.10;9.90;;;30.80;72.40;;;;;;5074882;28;20483;-73
2021/07/23 08:45:38;;;;;;;10.77;9.67;;;31.60;68.60;;;;;;5074695;28;20441;-73
2021/07/23 08:48:06;;;;;;;10.40;9.30;;;32.20;63.30;;;;;;5074905;28;20441;-73
2021/07/23 08:50:34;;;;;;;11.00;9.90;;;33.10;62.80;;;;;;5074435;28;20464;-73
2021/07/23 08:53:09;;;;;;;11.40;9.60;;;34.00;55.80;;;;;;5074936;28;20523;-73
2021/07/23 08:55:36;;;;;;;10.80;8.97;;;33.90;55.50;;;;;;5074590;28;20444;-73
2021/07/23 08:58:06;;;;;;;9.43;8.53;;;33.80;55.10;;;;;;5074577;28;20441;-73
2021/07/23 09:00:33;;;;;;;11.03;9.57;;;33.60;55.10;;;;;;5074220;28;20469;-73
2021/07/23 09:03:01;;;;;;;9.73;8.57;;;33.60;55.00;;;;;;5074837;28;20487;-73
2021/07/23 09:05:29;;;;;;;11.20;10.03;;;33.30;56.60;;;;;;5074187;28;20540;-73
2021/07/23 09:07:59;;;;;;;10.77;9.70;;;33.80;56.10;;;;;;5074049;28;20528;-73
2021/07/23 09:10:28;;;;;;;10.63;9.53;;;34.30;53.60;;;;;;5073174;28;20456;-73
2021/07/23 09:12:57;;;;;;;9.40;8.40;;;35.70;52.20;;;;;;5074091;28;20547;-72
2021/07/23 09:15:26;;;;;;;9.80;8.90;;;35.80;51.80;;;;;;5074392;28;20441;-72
2021/07/23 09:17:54;;;;;;;10.77;9.67;;;35.90;50.30;;;;;;5073749;28;20449;-73
2021/07/23 09:20:26;;;;;;;10.07;9.03;;;37.00;50.10;;;;;;5073828;28;20492;-73
2021/07/23 09:22:55;;;;;;;11.10;10.00;;;37.20;45.60;;;;;;5074188;28;20476;-73
2021/07/23 09:25:43;;;;;;;11.33;9.80;;;35.80;46.90;;;;;;5074093;28;20473;-73
2021/07/23 09:28:29;;;;;;;10.00;9.00;;;36.20;47.60;;;;;;5074319;28;20445;-73
2021/07/23 09:30:56;;;;;;;10.70;9.70;;;37.10;46.50;;;;;;5073784;28;20803;-73
2021/07/23 09:33:28;;;;;;;10.13;9.03;;;37.40;47.00;;;;;;5074198;28;20437;-73
2021/07/23 09:35:56;;;;;;;10.40;9.30;;;37.10;45.50;;;;;;5074132;28;20525;-73
2021/07/23 09:38:24;;;;;;;10.10;9.10;;;36.10;47.50;;;;;;5074153;28;20490;-73
2021/07/23 09:40:53;;;;;;;9.47;8.47;;;35.70;46.70;;;;;;5073306;28;20477;-73
2021/07/23 09:43:34;;;;;;;8.70;7.90;;;36.10;46.00;;;;;;5073981;28;20483;-73
2021/07/23 09:46:26;;;;;;;8.63;7.83;;;36.00;46.00;;;;;;5073974;28;20492;-73
2021/07/23 09:48:54;;;;;;;9.33;8.47;;;37.20;46.00;;;;;;5070152;28;20851;-73
2021/07/23 09:51:24;;;;;;;8.73;7.93;;;37.60;44.80;;;;;;5073245;28;20469;-74
2021/07/23 09:53:51;;;;;;;8.40;7.50;;;38.30;45.00;;;;;;5073535;28;20437;-74
2021/07/23 09:56:22;;;;;;;9.77;8.87;;;39.50;41.60;;;;;;5073787;28;20439;-73
2021/07/23 09:58:55;;;;;;;8.97;8.17;;;38.80;41.20;;;;;;5073830;28;20524;-73
2021/07/23 10:01:26;;;;;;;8.70;7.90;;;38.00;40.80;;;;;;5073252;28;20456;-76
2021/07/23 10:03:58;;;;;;;9.17;8.37;;;36.50;42.60;;;;;;5078706;28;20484;-74
2021/07/23 10:06:28;;;;;;;8.23;7.43;;;36.20;46.40;;;;;;5091992;28;20497;-77
2021/07/23 10:08:57;;;;;;;9.67;8.87;;;37.10;45.50;;;;;;5093039;28;20446;-75
2021/07/23 10:11:25;;;;;;;9.50;8.63;;;37.60;42.70;;;;;;5091952;28;20462;-72
2021/07/23 10:13:56;;;;;;;11.10;9.23;;;37.20;42.00;;;;;;5092467;28;20432;-74
2021/07/23 10:16:24;;;;;;;10.03;9.03;;;35.40;44.50;;;;;;5092708;28;20451;-74
2021/07/23 10:18:51;;;;;;;9.70;8.80;;;34.30;46.50;;;;;;5092110;28;20959;-74
2021/07/23 10:21:18;;;;;;;10.80;9.70;;;33.90;46.50;;;;;;5094958;28;20463;-74
2021/07/23 10:23:46;;;;;;;11.73;8.70;;;33.50;47.60;;;;;;5096646;28;20479;-73
2021/07/23 10:26:14;;;;;;;9.37;8.47;;;34.50;49.90;;;;;;5096327;28;20798;-74
2021/07/23 10:28:57;;;;;;;9.07;8.17;;;36.00;47.50;;;;;;5096258;28;20542;-76
2021/07/23 10:31:43;;;;;;;9.30;8.40;;;36.60;44.90;;;;;;5096028;28;20475;-72
2021/07/23 10:34:11;;;;;;;9.80;8.80;;;37.70;42.90;;;;;;5096245;28;20937;-71
2021/07/23 10:36:39;;;;;;;9.13;8.27;;;37.10;41.50;;;;;;5096007;28;20501;-75
2021/07/23 10:39:13;;;;;;;9.07;8.27;;;37.70;42.90;;;;;;5096008;28;20955;-75
2021/07/23 10:41:41;;;;;;;8.60;7.90;;;38.30;42.00;;;;;;5095680;28;20563;-74
2021/07/23 10:44:12;;;;;;;9.30;8.30;;;37.80;41.50;;;;;;5096118;28;20487;-74
2021/07/23 10:46:55;;;;;;;9.07;8.27;;;37.60;41.80;;;;;;5096050;28;20435;-74
2021/07/23 10:49:46;;;;;;;9.33;8.43;;;37.10;40.90;;;;;;5096139;28;20428;-72
2021/07/23 10:52:34;;;;;;;9.77;8.90;;;36.20;43.00;;;;;;5095674;28;20462;-71
2021/07/23 10:55:27;;;;;;;9.47;8.57;;;35.60;43.50;;;;;;5095654;28;20433;-74
2021/07/23 10:58:42;;;;;;;9.50;8.53;;;34.50;44.90;;;;;;5095781;28;20905;-73
2021/07/23 11:01:11;;;;;;;9.53;8.73;;;33.50;46.60;;;;;;5095640;28;20547;-73
2021/07/23 11:04:01;;;;;;;9.30;8.40;;;32.60;48.10;;;;;;5095718;28;20545;-72
2021/07/23 11:06:33;;;;;;;9.40;8.50;;;32.00;49.70;;;;;;5095360;28;20786;-73
2021/07/23 11:09:04;;;;;;;9.13;8.33;;;31.40;50.90;;;;;;5095787;28;20447;-73
2021/07/23 11:11:31;;;;;;;9.33;8.20;;;30.80;52.20;;;;;;5095431;28;20467;-73
2021/07/23 11:14:14;;;;;;;9.87;8.87;;;30.40;53.00;;;;;;5095564;28;20518;-74
2021/07/23 11:16:43;;;;;;;10.50;9.40;;;30.10;54.40;;;;;;5095487;28;20427;-75
2021/07/23 11:19:18;;;;;;;9.50;8.40;;;29.80;55.70;;;;;;5095502;28;20530;-74
2021/07/23 11:21:44;;;;;;;9.73;8.73;;;30.00;55.50;;;;;;5095039;28;20473;-73
2021/07/23 11:24:13;;;;;;;9.10;8.20;;;30.10;55.30;;;;;;5095395;28;20475;-74
2021/07/23 11:26:47;;;;;;;9.23;8.40;;;30.00;55.30;;;;;;5095069;28;20447;-76
2021/07/23 11:29:15;;;;;;;9.10;8.23;;;29.90;56.10;;;;;;5095043;28;20462;-75
2021/07/23 11:31:43;;;;;;;9.77;8.77;;;29.90;55.80;;;;;;5093789;28;20486;-73
2021/07/23 11:34:25;;;;;;;9.77;8.77;;;29.80;55.90;;;;;;5095362;28;20448;-76
2021/07/23 11:36:52;;;;;;;9.70;8.70;;;29.90;56.50;;;;;;5095161;28;20448;-74
2021/07/23 11:39:21;;;;;;;10.23;8.80;;;30.00;57.30;;;;;;5095208;28;20436;-75
2021/07/23 11:41:58;;;;;;;8.87;8.07;;;30.10;58.90;;;;;;5095036;28;20468;-74
2021/07/23 11:44:25;;;;;;;9.67;8.73;;;30.10;55.90;;;;;;5094827;28;20476;-75
2021/07/23 11:46:54;;;;;;;11.43;10.30;;;30.10;55.60;;;;;;5094601;28;20451;-76
2021/07/23 11:49:21;;;;;;;9.87;8.87;;;30.20;56.80;;;;;;5094546;28;20451;-74
2021/07/23 11:51:48;;;;;;;10.27;9.27;;;30.30;57.10;;;;;;5093963;28;20821;-75
2021/07/23 11:54:18;;;;;;;10.07;9.07;;;30.00;56.10;;;;;;5094469;28;20443;-72
2021/07/23 11:56:45;;;;;;;10.40;9.30;;;29.90;56.50;;;;;;5094571;28;20451;-74
2021/07/23 11:59:12;;;;;;;10.47;9.37;;;29.80;56.60;;;;;;5094433;28;20448;-74
2021/07/23 12:01:41;;;;;;;10.83;9.23;;;29.90;58.90;;;;;;5094055;28;20472;-74
2021/07/23 12:04:09;;;;;;;9.80;8.80;;;29.90;58.70;;;;;;5094041;28;20472;-74
2021/07/23 12:06:39;;;;;;;9.80;8.80;;;29.70;58.10;;;;;;5093877;28;21020;-75
2021/07/23 12:09:09;;;;;;;9.83;8.80;;;29.80;58.40;;;;;;5094142;28;20573;-75
2021/07/23 12:11:36;;;;;;;10.23;9.13;;;30.00;59.10;;;;;;5094027;28;20472;-76
2021/07/23 12:14:11;;;;;;;9.90;8.90;;;29.90;56.10;;;;;;5093835;28;20939;-76
2021/07/23 12:16:38;;;;;;;10.13;9.17;;;29.70;57.30;;;;;;5093919;28;20440;-77
2021/07/23 12:19:10;;;;;;;10.60;9.50;;;29.50;58.30;;;;;;5093606;28;20530;-76
2021/07/23 12:21:40;;;;;;;9.43;8.43;;;29.60;57.90;;;;;;5094362;28;20472;-77
2021/07/23 12:24:08;;;;;;;9.37;8.47;;;29.80;58.80;;;;;;5094110;28;20475;-76
2021/07/23 12:26:36;;;;;;;11.10;9.60;;;30.00;57.20;;;;;;5093706;28;20533;-74
2021/07/23 12:29:05;;;;;;;10.40;8.90;;;29.90;56.70;;;;;;5093399;28;20909;-73
2021/07/23 12:31:32;;;;;;;9.70;8.70;;;29.80;56.90;;;;;;5093239;28;20468;-73
2021/07/23 12:34:04;;;;;;;10.90;8.10;;;29.70;56.40;;;;;;5093590;28;20531;-73
2021/07/23 12:36:38;;;;;;;10.13;8.90;;;29.60;56.40;;;;;;5093584;28;20535;-72
2021/07/23 12:39:06;;;;;;;9.00;8.17;;;29.60;56.80;;;;;;5093548;28;20539;-72
2021/07/23 12:41:33;;;;;;;9.30;8.27;;;29.50;56.40;;;;;;5093128;28;20546;-72
2021/07/23 12:44:05;;;;;;;11.37;8.80;;;29.30;56.70;;;;;;5093130;28;20482;-72
2021/07/23 12:46:32;;;;;;;9.90;8.60;;;29.10;57.20;;;;;;5093374;28;20445;-72